Time;durP1;ratioP1;P1;durP2;ratioP2;P2;SDS_P1;SDS_P2;PMS_P1;PMS_P2;Temp;Humidity;BMP_temperature;BMP_pressure;BME280_temperature;BME280_humidity;BME280_pressure;Samples;Min_cycle;Max_cycle;Signal;HPM_P1;HPM_P2
2022/08/31 00:05:04;;;;;;;;;5.20;5.20;;;;;23.52;43.90;101188.53;5118952;27;45342;-55
2022/08/31 00:07:30;;;;;;;;;8.00;6.75;;;;;23.47;44.14;101192.22;5100788;27;45496;-51
2022/08/31 00:09:56;;;;;;;;;8.50;8.50;;;;;23.42;44.05;101187.50;5118112;27;46475;-51
2022/08/31 00:12:21;;;;;;;;;6.50;5.00;;;;;23.41;44.21;101194.22;5083134;27;45645;-52
2022/08/31 00:14:47;;;;;;;;;6.25;6.25;;;;;23.19;43.87;101174.13;5118816;27;45898;-56
2022/08/31 00:17:13;;;;;;;;;7.00;4.00;;;;;23.22;44.07;101171.59;5118767;27;45633;-54
2022/08/31 00:19:39;;;;;;;;;7.00;7.00;;;;;23.28;44.30;101189.22;5118289;27;46867;-54
2022/08/31 00:22:04;;;;;;;;;3.50;3.50;;;;;23.25;44.16;101185.03;5118593;27;45339;-51
2022/08/31 00:24:31;;;;;;;;;6.50;6.50;;;;;23.27;44.11;101179.97;5118079;27;45304;-51
2022/08/31 00:26:56;;;;;;;;;5.00;5.00;;;;;23.22;43.98;101176.38;5118120;27;45394;-52
2022/08/31 00:29:22;;;;;;;;;5.75;5.75;;;;;23.16;43.98;101172.78;5118064;27;45532;-50
2022/08/31 00:31:47;;;;;;;;;5.25;5.25;;;;;23.18;44.32;101175.25;5118270;27;45372;-56
2022/08/31 00:34:13;;;;;;;;;4.50;4.50;;;;;23.18;43.93;101178.06;5118232;27;45311;-53
2022/08/31 00:36:38;;;;;;;;;11.25;10.00;;;;;23.09;44.47;101175.00;5099737;27;45324;-51
2022/08/31 00:39:05;;;;;;;;;8.00;6.00;;;;;22.86;44.30;101150.22;5117943;27;45543;-54
2022/08/31 00:41:34;;;;;;;;;9.40;7.00;;;;;22.99;44.30;101175.91;5055560;27;45302;-54
2022/08/31 00:44:02;;;;;;;;;7.40;6.80;;;;;22.99;44.29;101178.69;5092467;27;45225;-57
2022/08/31 00:46:30;;;;;;;;;5.20;4.60;;;;;22.85;44.52;101156.91;5076240;27;45551;-50
2022/08/31 00:49:10;;;;;;;;;7.40;6.00;;;;;22.96;44.59;101176.47;5078813;27;47016;-56
2022/08/31 00:51:40;;;;;;;;;6.00;5.00;;;;;23.01;44.21;101179.25;5078516;27;45381;-52
2022/08/31 00:54:05;;;;;;;;;3.80;3.80;;;;;22.81;44.32;101150.25;5078988;27;45504;-51
2022/08/31 00:56:32;;;;;;;;;3.50;3.50;;;;;22.93;44.12;101180.69;5062337;27;45713;-55
2022/08/31 00:58:59;;;;;;;;;3.00;3.00;;;;;22.97;44.31;101186.53;5062212;27;45867;-54
2022/08/31 01:01:24;;;;;;;;;8.20;8.20;;;;;22.87;44.69;101182.69;5097216;27;45462;-56
2022/08/31 01:03:50;;;;;;;;;8.00;5.50;;;;;22.81;44.45;101167.03;5073742;27;45235;-54
2022/08/31 01:06:16;;;;;;;;;7.00;6.00;;;;;22.92;44.26;101180.97;5117885;27;45171;-51
2022/08/31 01:08:41;;;;;;;;;5.40;5.40;;;;;22.94;44.15;101187.13;5117675;27;45627;-51
2022/08/31 01:11:07;;;;;;;;;4.00;4.00;;;;;22.85;44.45;101172.88;5098839;27;45298;-52
2022/08/31 01:13:32;;;;;;;;;5.75;5.75;;;;;22.83;44.59;101177.94;5098933;27;45381;-50
2022/08/31 01:16:00;;;;;;;;;4.50;4.50;;;;;22.77;44.66;101174.31;5099342;27;45546;-50
2022/08/31 01:18:26;;;;;;;;;8.20;5.00;;;;;22.76;44.84;101186.63;5081528;27;45692;-55
2022/08/31 01:21:07;;;;;;;;;3.75;3.00;;;;;22.77;44.80;101188.28;5099011;27;45432;-51
2022/08/31 01:23:33;;;;;;;;;7.40;5.00;;;;;22.66;44.28;101164.25;5117175;27;45497;-53
2022/08/31 01:25:59;;;;;;;;;6.80;6.20;;;;;22.71;45.00;101187.47;5078505;27;45690;-51
2022/08/31 01:28:25;;;;;;;;;4.00;4.00;;;;;22.72;44.97;101188.28;5078456;27;46100;-56
2022/08/31 01:31:04;;;;;;;;;5.00;5.00;;;;;22.55;44.93;101158.69;5095723;27;45396;-54
2022/08/31 01:33:30;;;;;;;;;3.20;3.20;;;;;22.66;44.90;101193.06;5096958;27;45306;-51
2022/08/31 01:35:55;;;;;;;;;4.00;4.00;;;;;22.60;44.98;101195.06;5097093;27;45264;-54
2022/08/31 01:38:21;;;;;;;;;5.50;4.50;;;;;22.59;44.96;101198.97;5095297;27;46430;-53
2022/08/31 01:40:52;;;;;;;;;4.00;4.00;;;;;22.60;44.98;101185.81;5096239;27;45249;-54
2022/08/31 01:43:17;;;;;;;;;5.00;5.00;;;;;22.59;44.61;101192.53;5096949;27;45283;-50
2022/08/31 01:45:43;;;;;;;;;4.75;4.75;;;;;22.54;44.91;101193.38;5096697;27;45250;-54
2022/08/31 01:48:08;;;;;;;;;4.75;4.75;;;;;22.48;45.27;101183.28;5096381;27;46095;-51
2022/08/31 01:50:34;;;;;;;;;3.00;3.00;;;;;22.56;45.00;101193.94;5095250;27;45384;-52
2022/08/31 01:53:00;;;;;;;;;5.00;5.00;;;;;22.51;45.04;101185.53;5094901;27;45891;-56
2022/08/31 01:55:25;;;;;;;;;5.00;3.25;;;;;22.40;45.28;101179.09;5095326;27;45356;-55
2022/08/31 01:57:51;;;;;;;;;5.50;4.25;;;;;22.40;45.40;101190.28;5095329;27;45935;-52
2022/08/31 02:00:16;;;;;;;;;4.00;4.00;;;;;22.31;45.56;101183.59;5081790;27;45479;-55
2022/08/31 02:02:42;;;;;;;;;4.00;4.00;;;;;22.29;45.73;101192.25;5089235;27;45383;-51
2022/08/31 02:05:07;;;;;;;;;3.50;3.50;;;;;22.31;45.78;101198.41;5096302;27;45296;-52
2022/08/31 02:07:33;;;;;;;;;4.50;3.00;;;;;22.18;45.78;101177.47;5096305;27;45540;-53
2022/08/31 02:09:58;;;;;;;;;6.25;4.75;;;;;22.22;45.64;101188.91;5096595;27;45465;-52
2022/08/31 02:12:24;;;;;;;;;6.50;5.00;;;;;22.29;45.78;101197.00;5096121;27;45400;-54
2022/08/31 02:14:49;;;;;;;;;7.00;7.00;;;;;22.24;45.66;101185.84;5096416;27;45347;-54
2022/08/31 02:17:15;;;;;;;;;3.50;3.50;;;;;22.11;45.75;101168.53;5096125;27;46681;-56
2022/08/31 02:19:40;;;;;;;;;5.00;5.00;;;;;22.19;46.03;101193.09;5078066;27;45257;-52
2022/08/31 02:22:06;;;;;;;;;5.50;5.50;;;;;22.25;45.71;101191.13;5096010;27;45337;-52
2022/08/31 02:24:31;;;;;;;;;4.00;4.00;;;;;22.26;45.80;101190.03;5096188;27;45526;-52
2022/08/31 02:26:57;;;;;;;;;9.50;6.50;;;;;22.09;45.83;101167.13;5095477;27;45921;-50
2022/08/31 02:29:22;;;;;;;;;9.00;7.25;;;;;22.22;45.72;101194.50;5077692;27;45335;-56
2022/08/31 02:31:48;;;;;;;;;5.00;4.50;;;;;22.17;45.82;101208.47;5095693;27;45281;-54
2022/08/31 02:34:16;;;;;;;;;4.75;4.75;;;;;22.18;45.68;101212.94;5096437;27;45178;-55
2022/08/31 02:36:41;;;;;;;;;6.20;5.40;;;;;22.12;45.90;101208.47;5095721;27;47021;-53
2022/08/31 02:39:07;;;;;;;;;4.25;4.25;;;;;22.07;46.05;101210.16;5076981;27;45426;-54
2022/08/31 02:41:32;;;;;;;;;4.25;4.25;;;;;22.07;45.98;101220.50;5077474;27;45365;-55
2022/08/31 02:43:58;;;;;;;;;5.00;5.00;;;;;21.96;46.42;101214.06;5077729;27;45498;-56
2022/08/31 02:46:23;;;;;;;;;4.50;4.50;;;;;21.89;46.44;101213.50;5095130;27;46629;-56
2022/08/31 02:48:49;;;;;;;;;5.25;4.50;;;;;21.70;45.89;101177.69;5095337;27;45337;-51
2022/08/31 02:51:14;;;;;;;;;7.00;5.75;;;;;21.85;46.42;101203.97;5095548;27;45287;-54
2022/08/31 02:53:40;;;;;;;;;3.75;3.75;;;;;21.92;46.27;101222.16;5095844;27;45470;-53
2022/08/31 02:56:06;;;;;;;;;5.25;4.25;;;;;21.87;46.42;101222.16;5094925;27;46122;-56
2022/08/31 02:58:32;;;;;;;;;4.60;4.60;;;;;21.92;46.31;101218.50;5095549;27;45361;-55
2022/08/31 03:00:58;;;;;;;;;8.25;5.75;;;;;21.94;46.15;101221.88;5095427;27;45202;-53
2022/08/31 03:03:24;;;;;;;;;6.75;5.75;;;;;21.83;46.07;101214.59;5109160;27;45428;-55
2022/08/31 03:05:49;;;;;;;;;4.25;4.25;;;;;21.76;46.33;101217.66;5119167;27;45887;-50
2022/08/31 03:08:15;;;;;;;;;5.00;5.00;;;;;21.67;46.73;101217.34;5119343;27;45350;-54
2022/08/31 03:10:40;;;;;;;;;5.50;5.25;;;;;21.58;46.75;101218.97;5083887;27;45350;-51
2022/08/31 03:13:06;;;;;;;;;4.25;3.25;;;;;21.61;46.63;101210.88;5119130;27;45492;-54
2022/08/31 03:15:31;;;;;;;;;4.00;4.00;;;;;21.35;47.06;101174.50;5100722;27;45577;-56
2022/08/31 03:17:57;;;;;;;;;6.00;4.25;;;;;21.68;46.64;101221.81;5119165;27;45417;-52
2022/08/31 03:20:23;;;;;;;;;3.75;3.75;;;;;21.76;46.46;101221.28;5100978;27;45363;-55
2022/08/31 03:22:49;;;;;;;;;4.00;4.00;;;;;21.53;46.17;101181.56;5119205;27;45473;-54
2022/08/31 03:25:16;;;;;;;;;4.80;4.80;;;;;21.57;46.47;101194.97;5118804;27;45544;-53
2022/08/31 03:27:42;;;;;;;;;4.40;3.60;;;;;21.73;46.60;101227.44;5101156;27;45423;-51
2022/08/31 03:30:11;;;;;;;;;3.80;3.40;;;;;21.52;46.51;101199.41;5119303;27;45626;-51
2022/08/31 03:32:36;;;;;;;;;6.40;4.80;;;;;21.70;46.65;101230.78;5118523;27;45471;-52
2022/08/31 03:35:02;;;;;;;;;3.00;3.00;;;;;21.70;46.65;101239.16;5119230;27;45551;-52
2022/08/31 03:37:28;;;;;;;;;5.00;3.80;;;;;21.53;46.80;101230.97;5119042;27;45689;-54
2022/08/31 03:39:53;;;;;;;;;4.75;4.00;;;;;21.52;47.02;101234.88;5101057;27;45440;-53
2022/08/31 03:42:19;;;;;;;;;5.00;5.00;;;;;21.45;46.90;101234.31;5119421;27;45376;-54
2022/08/31 03:44:45;;;;;;;;;7.00;5.00;;;;;21.07;47.12;101187.00;5118962;27;46350;-54
2022/08/31 03:47:11;;;;;;;;;5.60;4.00;;;;;21.35;47.30;101227.56;5117979;27;45299;-51
2022/08/31 03:49:36;;;;;;;;;4.00;4.00;;;;;21.40;47.24;101226.75;5119277;27;45299;-53
2022/08/31 03:52:02;;;;;;;;;3.25;3.25;;;;;21.40;46.66;101233.16;5119364;27;45360;-53
2022/08/31 03:54:27;;;;;;;;;4.50;3.50;;;;;21.27;46.71;101216.91;5118625;27;45336;-51
2022/08/31 03:56:53;;;;;;;;;4.00;4.00;;;;;21.40;46.79;101240.72;5100386;27;45418;-55
2022/08/31 03:59:18;;;;;;;;;6.75;6.75;;;;;21.33;46.90;101243.75;5119144;27;45344;-54
2022/08/31 04:01:44;;;;;;;;;5.75;5.75;;;;;21.25;47.05;101239.53;5118692;27;45559;-50
2022/08/31 04:04:11;;;;;;;;;6.00;4.75;;;;;21.23;47.17;101243.69;5098658;27;45940;-53
2022/08/31 04:06:39;;;;;;;;;6.00;2.60;;;;;21.19;47.30;101225.81;5079456;27;45353;-50
2022/08/31 04:09:04;;;;;;;;;6.20;4.80;;;;;21.11;47.41;101236.41;5079950;27;45400;-52
2022/08/31 04:11:30;;;;;;;;;6.00;6.00;;;;;21.11;47.39;101230.81;5098355;27;45419;-50
2022/08/31 04:13:55;;;;;;;;;3.00;2.25;;;;;20.87;47.75;101196.09;5096540;27;46367;-53
2022/08/31 04:16:21;;;;;;;;;7.00;5.75;;;;;21.10;47.70;101231.94;5097519;27;45666;-53
2022/08/31 04:18:47;;;;;;;;;6.25;5.25;;;;;21.14;47.44;101235.03;5079219;27;45405;-54
2022/08/31 04:21:20;;;;;;;;;7.00;6.00;;;;;21.05;47.61;101247.78;5063027;27;45467;-52
2022/08/31 04:23:48;;;;;;;;;6.80;5.60;;;;;20.98;47.75;101236.91;5097517;27;46421;-51
2022/08/31 04:26:18;;;;;;;;;5.40;5.40;;;;;21.03;47.48;101233.28;5078965;27;45302;-52
2022/08/31 04:28:44;;;;;;;;;6.00;4.60;;;;;21.04;47.51;101235.81;5097334;27;45305;-55
2022/08/31 04:31:09;;;;;;;;;3.00;3.00;;;;;20.95;47.70;101240.22;5097741;27;45363;-52
2022/08/31 04:33:37;;;;;;;;;5.75;5.75;;;;;20.96;47.99;101242.72;5097335;27;46246;-54
2022/08/31 04:36:07;;;;;;;;;5.60;3.40;;;;;20.93;47.73;101236.84;5097303;27;45341;-52
2022/08/31 04:38:32;;;;;;;;;6.20;5.00;;;;;20.83;48.33;101232.88;5079303;27;45374;-52
2022/08/31 04:41:02;;;;;;;;;4.25;4.25;;;;;20.81;48.16;101242.63;5079533;27;45381;-55
2022/08/31 04:43:28;;;;;;;;;5.60;5.00;;;;;20.68;48.15;101211.31;5096897;27;45660;-52
2022/08/31 04:45:53;;;;;;;;;6.50;5.50;;;;;20.89;47.90;101232.91;5097149;27;45325;-55
2022/08/31 04:48:19;;;;;;;;;7.75;7.75;;;;;20.89;48.21;101236.56;5097292;27;45335;-55
2022/08/31 04:50:44;;;;;;;;;6.00;5.00;;;;;20.91;47.98;101234.31;5097166;27;45329;-51
2022/08/31 04:53:09;;;;;;;;;4.25;4.25;;;;;20.92;47.87;101233.22;5097003;27;45797;-55
2022/08/31 04:55:39;;;;;;;;;5.00;5.00;;;;;20.89;47.72;101235.69;5097100;27;45374;-55
2022/08/31 04:58:04;;;;;;;;;6.00;5.00;;;;;20.76;48.16;101232.25;5096976;27;45364;-50
2022/08/31 05:00:29;;;;;;;;;6.00;5.00;;;;;20.76;48.39;101231.44;5097395;27;45212;-50
2022/08/31 05:02:55;;;;;;;;;6.75;5.75;;;;;20.63;48.38;101208.47;5105768;27;46248;-50
2022/08/31 05:05:20;;;;;;;;;4.75;4.75;;;;;20.88;48.21;101242.41;5099172;27;45687;-54
2022/08/31 05:07:46;;;;;;;;;4.00;4.00;;;;;20.89;47.68;101244.94;5117301;27;45403;-54
2022/08/31 05:10:11;;;;;;;;;4.00;4.00;;;;;20.68;48.11;101208.50;5118053;27;45289;-52
2022/08/31 05:12:37;;;;;;;;;5.00;3.50;;;;;20.84;48.29;101242.94;5117537;27;45765;-51
2022/08/31 05:15:03;;;;;;;;;7.00;5.50;;;;;20.75;48.05;101224.16;5117153;27;45355;-55
2022/08/31 05:17:28;;;;;;;;;5.00;5.00;;;;;20.89;48.14;101241.28;5117303;27;45376;-54
2022/08/31 05:19:53;;;;;;;;;6.50;6.50;;;;;20.89;48.16;101238.50;5117560;27;45669;-54
2022/08/31 05:22:19;;;;;;;;;5.75;5.75;;;;;20.50;47.86;101176.34;5117168;27;45801;-50
2022/08/31 05:24:46;;;;;;;;;6.25;5.75;;;;;20.88;48.19;101248.84;5117054;27;45467;-54
2022/08/31 05:27:11;;;;;;;;;6.60;6.60;;;;;20.90;48.26;101254.97;5116277;27;45268;-54
2022/08/31 05:29:37;;;;;;;;;6.75;6.75;;;;;20.82;48.12;101249.88;5118032;27;45594;-50
2022/08/31 05:32:02;;;;;;;;;7.75;6.00;;;;;20.88;47.88;101254.41;5117053;27;45735;-54
2022/08/31 05:34:28;;;;;;;;;5.25;5.25;;;;;20.89;48.09;101247.72;5116543;27;45347;-54
2022/08/31 05:36:55;;;;;;;;;7.00;7.00;;;;;20.91;47.98;101255.81;5117527;27;45412;-51
2022/08/31 05:39:20;;;;;;;;;5.80;5.00;;;;;20.87;48.39;101247.16;5117456;27;45308;-50
2022/08/31 05:41:46;;;;;;;;;4.25;4.25;;;;;20.86;48.12;101248.25;5116890;27;46581;-51
2022/08/31 05:44:12;;;;;;;;;6.25;6.00;;;;;20.88;48.07;101239.59;5098799;27;45919;-49
2022/08/31 05:46:37;;;;;;;;;2.25;2.25;;;;;20.80;48.08;101224.19;5098904;27;45511;-54
2022/08/31 05:49:04;;;;;;;;;7.25;6.25;;;;;20.92;48.13;101249.94;5098714;27;45447;-52
2022/08/31 05:51:30;;;;;;;;;5.40;5.40;;;;;20.94;47.94;101244.97;5098748;27;46472;-53
2022/08/31 05:53:58;;;;;;;;;6.25;4.25;;;;;20.57;47.98;101181.66;5098597;27;45392;-52
2022/08/31 05:56:24;;;;;;;;;5.00;5.00;;;;;20.91;48.13;101242.69;5098811;27;45302;-52
2022/08/31 05:58:49;;;;;;;;;7.00;6.00;;;;;20.91;47.97;101242.69;5117333;27;45318;-54
2022/08/31 06:01:29;;;;;;;;;4.25;4.25;;;;;20.89;48.26;101250.50;5098597;27;46838;-54
2022/08/31 06:03:55;;;;;;;;;6.00;5.20;;;;;20.82;48.66;101244.28;5099615;27;45358;-52
2022/08/31 06:06:21;;;;;;;;;7.00;7.00;;;;;20.81;48.74;101251.00;5096290;27;45305;-54
2022/08/31 06:08:46;;;;;;;;;6.00;5.50;;;;;20.72;48.75;101228.34;5061266;27;45556;-56
2022/08/31 06:11:14;;;;;;;;;6.50;6.50;;;;;20.83;48.91;101251.56;5096186;27;45502;-52
2022/08/31 06:13:40;;;;;;;;;7.20;6.60;;;;;20.84;48.78;101248.53;5077999;27;45428;-56
2022/08/31 06:16:07;;;;;;;;;7.00;6.40;;;;;20.93;48.40;101259.19;5096078;27;45402;-55
2022/08/31 06:18:32;;;;;;;;;7.20;6.80;;;;;20.91;48.49;101250.25;5061611;27;45508;-52
2022/08/31 06:21:07;;;;;;;;;8.00;6.50;;;;;20.81;48.65;101229.50;5077961;27;46454;-50
2022/08/31 06:23:35;;;;;;;;;10.80;7.60;;;;;20.99;48.76;101258.91;5096119;27;45372;-55
2022/08/31 06:26:05;;;;;;;;;10.80;8.40;;;;;20.98;48.55;101262.00;5060251;27;45929;-54
2022/08/31 06:28:31;;;;;;;;;7.00;7.00;;;;;20.89;48.38;101233.78;5096172;27;45409;-55
2022/08/31 06:31:00;;;;;;;;;6.60;6.60;;;;;20.95;48.47;101252.22;5101030;27;46709;-55
2022/08/31 06:33:25;;;;;;;;;7.40;6.40;;;;;21.04;48.71;101262.84;5103297;27;45450;-57
2022/08/31 06:35:51;;;;;;;;;6.25;6.00;;;;;21.06;48.74;101257.84;5098292;27;45337;-55
2022/08/31 06:38:16;;;;;;;;;7.00;5.50;;;;;21.01;48.70;101252.25;5117910;27;45313;-52
2022/08/31 06:40:42;;;;;;;;;7.00;7.00;;;;;20.98;48.33;101246.09;5119856;27;46227;-54
2022/08/31 06:43:07;;;;;;;;;7.25;6.25;;;;;21.05;48.63;101262.59;5118418;27;45364;-55
2022/08/31 06:45:33;;;;;;;;;6.75;6.50;;;;;20.86;48.44;101223.13;5120036;27;45332;-60
2022/08/31 06:47:59;;;;;;;;;9.25;8.00;;;;;21.07;48.52;101253.97;5101284;27;45604;-57
2022/08/31 06:50:25;;;;;;;;;5.80;5.80;;;;;21.15;48.38;101263.75;5119263;27;46450;-57
2022/08/31 06:52:50;;;;;;;;;9.25;8.00;;;;;21.12;48.44;101263.19;5119621;27;45673;-53
2022/08/31 06:55:16;;;;;;;;;7.50;7.50;;;;;21.20;48.51;101274.94;5119849;27;45850;-58
2022/08/31 06:57:42;;;;;;;;;8.25;8.25;;;;;21.08;48.33;101259.25;5101269;27;45810;-56
2022/08/31 07:00:08;;;;;;;;;10.25;9.25;;;;;20.94;48.36;101244.97;5119424;27;46472;-54
2022/08/31 07:02:33;;;;;;;;;10.00;8.00;;;;;21.14;48.34;101279.69;5100561;27;45404;-53
2022/08/31 07:04:59;;;;;;;;;8.25;8.00;;;;;20.94;48.48;101267.28;5094637;27;45473;-50
2022/08/31 07:07:24;;;;;;;;;7.25;7.25;;;;;20.89;49.05;101264.44;5095796;27;45257;-53
2022/08/31 07:09:50;;;;;;;;;8.75;7.75;;;;;20.93;49.00;101271.19;5089744;27;45681;-53
2022/08/31 07:12:15;;;;;;;;;8.50;8.50;;;;;21.04;48.75;101274.03;5097100;27;45403;-56
2022/08/31 07:14:41;;;;;;;;;8.00;8.00;;;;;20.86;48.73;101245.44;5081758;27;45825;-56
2022/08/31 07:17:07;;;;;;;;;8.00;6.75;;;;;21.07;48.66;101279.06;5111359;27;45436;-54
2022/08/31 07:19:32;;;;;;;;;8.40;8.40;;;;;21.04;48.97;101265.66;5081446;27;46097;-54
2022/08/31 07:21:59;;;;;;;;;12.25;9.75;;;;;20.94;49.22;101255.28;5061954;27;45350;-54
2022/08/31 07:24:28;;;;;;;;;8.40;8.40;;;;;21.06;49.08;101263.41;5092092;27;45389;-57
2022/08/31 07:26:56;;;;;;;;;9.60;8.00;;;;;21.11;48.81;101271.81;5060771;27;45639;-52
2022/08/31 07:29:23;;;;;;;;;9.40;7.40;;;;;21.13;48.72;101261.22;5076325;27;46439;-52
2022/08/31 07:31:49;;;;;;;;;13.00;10.80;;;;;21.13;48.59;101256.50;5063560;28;45392;-55
2022/08/31 07:34:19;;;;;;;;;11.20;11.20;;;;;21.19;48.49;101265.72;5058702;28;45411;-52
2022/08/31 07:42:15;;;;;;;;;12.00;12.00;;;;;21.11;48.54;101246.72;5061100;28;45783;-55
2022/08/31 07:44:40;;;;;;;;;12.80;9.20;;;;;21.08;48.45;101236.09;5076086;27;45431;-57
2022/08/31 07:47:10;;;;;;;;;9.25;9.25;;;;;21.02;48.59;101217.66;5058489;28;45426;-53
2022/08/31 07:49:37;;;;;;;;;11.00;11.00;;;;;21.37;48.36;101264.44;5058056;28;46735;-57
2022/08/31 07:52:05;;;;;;;;;13.20;11.60;;;;;21.35;48.35;101265.81;5075926;28;45411;-54
2022/08/31 07:54:31;;;;;;;;;8.20;7.00;;;;;21.39;48.46;101272.50;5075195;27;45424;-53
2022/08/31 07:57:02;;;;;;;;;12.75;12.00;;;;;21.39;48.34;101269.72;5076690;28;45330;-54
2022/08/31 07:59:28;;;;;;;;;11.60;8.60;;;;;21.27;48.34;101244.84;5076271;28;46149;-55
2022/08/31 08:02:00;;;;;;;;;10.20;8.00;;;;;21.45;48.31;101270.59;5058092;28;45398;-54
2022/08/31 08:04:26;;;;;;;;;9.00;8.00;;;;;21.28;48.64;101245.69;5072524;27;45408;-56
2022/08/31 08:06:55;;;;;;;;;10.80;9.40;;;;;21.41;48.84;101273.09;5093248;27;45400;-52
2022/08/31 08:09:22;;;;;;;;;12.20;9.60;;;;;21.49;48.46;101272.56;5057694;28;48720;-54
2022/08/31 08:11:53;;;;;;;;;13.60;11.20;;;;;21.52;48.55;101262.81;5055876;27;45398;-54
2022/08/31 08:14:20;;;;;;;;;9.80;9.80;;;;;21.53;48.33;101258.91;5096503;27;45342;-55
2022/08/31 08:16:45;;;;;;;;;10.40;9.00;;;;;21.61;48.10;101257.53;5078141;27;45412;-53
2022/08/31 08:19:11;;;;;;;;;9.25;8.50;;;;;21.65;48.15;101255.84;5072930;28;45805;-54
2022/08/31 08:21:36;;;;;;;;;2.25;2.25;;;;;21.73;48.08;101251.72;5075877;28;45314;-56
2022/08/31 08:24:02;;;;;;;;;9.00;7.75;;;;;21.66;48.28;101249.16;5076559;27;45274;-52
2022/08/31 08:26:27;;;;;;;;;6.50;5.75;;;;;21.75;48.20;101243.91;5068566;27;46685;-54
2022/08/31 08:28:53;;;;;;;;;11.75;9.50;;;;;21.85;48.01;101240.28;5080743;27;45568;-54
2022/08/31 08:31:21;;;;;;;;;12.00;10.75;;;;;21.71;48.01;101214.88;5089710;27;45410;-55
2022/08/31 08:33:47;;;;;;;;;13.40;12.20;;;;;21.91;47.85;101245.63;5077712;27;45566;-56
2022/08/31 08:36:15;;;;;;;;;8.25;8.25;;;;;21.92;47.87;101240.88;5091902;27;45380;-54
2022/08/31 08:38:46;;;;;;;;;10.40;9.80;;;;;21.87;47.91;101226.91;5076236;27;45412;-58
2022/08/31 08:41:14;;;;;;;;;11.20;9.80;;;;;21.97;48.00;101242.84;5074336;28;45513;-56
2022/08/31 08:43:45;;;;;;;;;12.60;10.20;;;;;22.05;47.63;101239.50;5059158;27;45823;-55
2022/08/31 08:46:12;;;;;;;;;11.40;11.40;;;;;22.10;47.43;101241.44;5074588;28;45463;-53
2022/08/31 08:48:39;;;;;;;;;11.80;10.40;;;;;22.06;47.76;101222.47;5076204;27;46744;-56
2022/08/31 08:51:12;;;;;;;;;11.20;9.40;;;;;22.24;47.75;101238.97;5057254;28;45737;-52
2022/08/31 08:53:38;;;;;;;;;12.40;11.80;;;;;22.12;47.22;101208.47;5076066;27;45660;-56
2022/08/31 08:56:04;;;;;;;;;10.60;10.60;;;;;22.32;47.18;101232.81;5074029;27;45778;-58
2022/08/31 08:58:29;;;;;;;;;12.25;11.25;;;;;22.42;47.10;101238.38;5077107;27;46438;-57
2022/08/31 09:00:55;;;;;;;;;10.75;10.00;;;;;22.32;46.65;101210.44;5073716;28;45404;-59
2022/08/31 09:03:43;;;;;;;;;14.20;11.00;;;;;22.54;46.62;101246.53;5063709;27;45650;-56
2022/08/31 09:06:28;;;;;;;;;13.00;13.00;;;;;22.56;46.74;101235.88;5089799;27;45475;-53
2022/08/31 09:09:10;;;;;;;;;11.20;11.20;;;;;22.58;46.82;101225.25;5094459;27;46059;-54
2022/08/31 09:11:58;;;;;;;;;7.60;6.40;;;;;22.64;46.78;101219.66;5075490;27;45330;-55
2022/08/31 09:14:27;;;;;;;;;8.20;8.20;;;;;22.78;46.75;101231.94;5094967;27;45277;-59
2022/08/31 09:17:15;;;;;;;;;10.80;10.60;;;;;22.93;46.51;101227.44;5095535;27;45575;-58
2022/08/31 09:20:00;;;;;;;;;13.20;12.00;;;;;22.98;46.10;101221.81;5094067;27;46349;-56
2022/08/31 09:22:29;;;;;;;;;13.80;12.00;;;;;23.08;45.76;101232.13;5095119;27;45463;-57
2022/08/31 09:24:58;;;;;;;;;12.00;10.20;;;;;23.15;45.85;101232.66;5095046;27;45444;-59
2022/08/31 09:27:56;;;;;;;;;12.00;11.80;;;;;23.25;46.12;101223.38;5073704;28;45519;-53
2022/08/31 09:30:44;;;;;;;;;14.60;13.00;;;;;23.31;45.49;101222.28;5039642;27;46481;-57
2022/08/31 09:33:16;;;;;;;;;9.20;8.60;;;;;23.28;45.51;101218.03;5088727;27;45470;-55
2022/08/31 09:35:41;;;;;;;;;9.20;9.20;;;;;23.39;46.29;101215.25;5096366;27;45151;-57
2022/08/31 09:38:15;;;;;;;;;12.25;10.50;;;;;23.48;45.98;101209.88;5097156;27;45273;-56
2022/08/31 09:40:48;;;;;;;;;10.40;9.00;;;;;23.47;45.80;101205.41;5077153;27;46516;-58
2022/08/31 09:43:22;;;;;;;;;11.20;9.40;;;;;23.51;45.95;101200.88;5094913;27;45356;-58
2022/08/31 09:46:01;;;;;;;;;9.60;9.60;;;;;23.51;45.56;101190.53;5080281;27;45480;-57
2022/08/31 09:48:50;;;;;;;;;12.00;12.00;;;;;23.66;45.49;101222.38;5094105;27;45356;-57
2022/08/31 09:51:42;;;;;;;;;9.20;9.20;;;;;23.71;45.70;101210.28;5115325;27;46785;-54
2022/08/31 09:56:57;;;;;;;;;13.20;12.60;;;;;23.78;45.11;101205.19;5095081;27;45353;-55
2022/08/31 09:59:33;;;;;;;;;12.50;11.00;;;;;23.83;45.18;101202.38;5095014;27;45623;-54
2022/08/31 10:02:01;;;;;;;;;11.20;11.20;;;;;23.86;44.84;101199.00;5094883;27;45981;-54
2022/08/31 10:04:35;;;;;;;;;9.40;9.40;;;;;23.91;44.75;101195.31;5075728;27;45388;-57
2022/08/31 10:07:10;;;;;;;;;11.00;11.00;;;;;23.96;44.75;101187.69;5092196;27;45706;-58
2022/08/31 10:09:43;;;;;;;;;17.40;16.00;;;;;24.04;44.49;101193.78;5079344;27;45412;-57
2022/08/31 10:12:12;;;;;;;;;14.40;13.40;;;;;24.05;44.82;101176.69;5115423;27;45973;-57
2022/08/31 10:15:02;;;;;;;;;21.00;19.40;;;;;24.10;44.95;101181.44;5081837;27;45734;-53
2022/08/31 10:17:39;;;;;;;;;9.00;7.80;;;;;24.15;44.51;101164.59;5080617;27;45393;-54
2022/08/31 10:20:11;;;;;;;;;11.60;9.60;;;;;24.19;44.49;101170.44;5078467;27;45400;-54
2022/08/31 10:22:50;;;;;;;;;8.20;8.20;;;;;24.09;44.36;101143.34;5078308;27;45483;-56
2022/08/31 10:25:26;;;;;;;;;11.80;11.00;;;;;24.43;44.64;101169.66;5098150;27;45399;-56
2022/08/31 10:28:10;;;;;;;;;11.00;9.60;;;;;24.49;44.11;101183.31;5059604;28;45456;-55
2022/08/31 10:30:54;;;;;;;;;8.80;8.20;;;;;24.54;44.26;101170.38;5077165;27;45415;-53
2022/08/31 10:36:32;;;;;;;;;10.00;9.00;;;;;24.72;43.59;101164.03;5062839;27;45578;-58
2022/08/31 10:38:57;;;;;;;;;9.60;9.60;;;;;24.90;43.99;101175.63;5102685;27;45456;-55
2022/08/31 10:41:35;;;;;;;;;9.50;8.25;;;;;24.96;43.26;101170.78;5120030;27;45428;-56
2022/08/31 10:44:16;;;;;;;;;10.00;9.60;;;;;24.95;43.15;101152.25;5101289;27;46540;-55
2022/08/31 10:46:42;;;;;;;;;11.20;11.20;;;;;24.66;42.56;101094.22;5101882;27;45488;-54
2022/08/31 10:49:08;;;;;;;;;10.00;10.00;;;;;25.04;42.83;101142.88;5120006;27;45486;-56
2022/08/31 10:51:45;;;;;;;;;10.50;7.50;;;;;25.31;42.66;101158.22;5081679;27;45235;-53
2022/08/31 10:54:17;;;;;;;;;9.60;9.60;;;;;25.46;42.34;101159.16;5064723;27;47327;-53
2022/08/31 10:56:58;;;;;;;;;11.40;10.00;;;;;25.38;42.27;101126.13;5118374;27;45399;-56
2022/08/31 11:00:40;;;;;;;;;10.80;10.40;;;;;25.57;42.06;101162.69;5081563;27;45244;-56
2022/08/31 11:03:21;;;;;;;;;11.20;9.60;;;;;25.75;42.39;101162.97;5013957;28;45932;-56
2022/08/31 11:05:51;;;;;;;;;11.00;10.60;;;;;25.84;42.23;101164.78;4997457;28;50900;-56
2022/08/31 11:08:38;;;;;;;;;11.00;11.00;;;;;25.98;42.06;101167.66;5079435;27;45330;-56
2022/08/31 11:11:07;;;;;;;;;9.40;9.40;;;;;25.82;41.34;101124.91;5075891;28;45429;-56
2022/08/31 11:13:59;;;;;;;;;10.80;10.80;;;;;26.07;41.21;101147.25;5061169;27;45791;-54
2022/08/31 11:16:46;;;;;;;;;10.00;10.00;;;;;26.22;41.02;101147.03;5097180;27;46186;-56
2022/08/31 11:19:30;;;;;;;;;9.40;9.40;;;;;26.26;41.00;101150.06;5096725;27;45830;-53
2022/08/31 11:22:15;;;;;;;;;9.40;8.80;;;;;26.33;40.38;101150.50;5075618;28;45472;-54
2022/08/31 11:25:18;;;;;;;;;10.60;10.60;;;;;26.42;40.98;101144.97;5094732;27;45503;-57
2022/08/31 11:27:49;;;;;;;;;10.00;10.00;;;;;26.50;40.44;101141.44;5096364;27;46510;-51
2022/08/31 11:30:23;;;;;;;;;12.00;9.20;;;;;26.62;40.41;101142.91;5058749;28;45411;-55
2022/08/31 11:32:59;;;;;;;;;10.80;10.20;;;;;26.76;40.02;101128.81;5078608;27;45496;-57
2022/08/31 11:38:53;;;;;;;;;11.00;8.60;;;;;27.13;39.41;101126.09;5056800;27;46410;-58
2022/08/31 11:41:38;;;;;;;;;11.00;9.80;;;;;27.11;38.98;101128.41;5067845;28;45388;-57
2022/08/31 11:44:06;;;;;;;;;10.20;9.60;;;;;27.10;39.26;101130.38;5076503;28;45307;-55
2022/08/31 11:46:42;;;;;;;;;14.20;13.00;;;;;27.20;39.30;101124.53;5061119;27;45323;-57
2022/08/31 11:49:09;;;;;;;;;11.80;9.60;;;;;27.37;38.69;101127.81;5074887;28;47879;-51